createdAt,value
2018-01-08T00:02:04.812Z,36.33
2018-01-08T00:04:32.351Z,40.05
2018-01-08T00:07:00.649Z,39.45
2018-01-08T00:09:28.184Z,45.05
2018-01-08T00:11:56.463Z,39.22
2018-01-08T00:14:24.744Z,36.58
2018-01-08T00:16:53.055Z,39.28
2018-01-08T00:19:20.577Z,38.42
2018-01-08T00:21:48.886Z,38.75
2018-01-08T00:24:16.408Z,43.10
2018-01-08T00:26:44.708Z,39.75
2018-01-08T00:29:12.228Z,45.75
2018-01-08T00:31:39.763Z,46.28
2018-01-08T00:34:07.291Z,37.30
2018-01-08T00:36:34.820Z,40.42
2018-01-08T00:39:02.339Z,34.35
2018-01-08T00:41:29.902Z,41.15
2018-01-08T00:43:57.415Z,42.60
2018-01-08T00:46:25.715Z,38.47
2018-01-08T00:48:53.236Z,47.30
2018-01-08T00:51:20.768Z,37.15
2018-01-08T00:53:48.283Z,41.75
2018-01-08T00:56:15.814Z,40.00
2018-01-08T00:58:43.331Z,35.97
2018-01-08T01:01:10.855Z,41.92
2018-01-08T01:03:39.140Z,45.65
2018-01-08T01:06:06.679Z,41.95
2018-01-08T01:08:34.190Z,40.30
2018-01-08T01:11:01.719Z,45.75
2018-01-08T01:13:29.245Z,40.33
2018-01-08T01:15:56.783Z,41.75
2018-01-08T01:18:24.307Z,47.33
2018-01-08T01:20:51.838Z,42.45
2018-01-08T01:23:19.360Z,46.67
2018-01-08T01:25:46.893Z,47.80
2018-01-08T01:28:14.426Z,49.22
2018-01-08T01:30:42.735Z,42.22
2018-01-08T01:33:10.256Z,44.95
2018-01-08T01:35:37.812Z,49.13
2018-01-08T01:38:05.341Z,46.45
2018-01-08T01:40:32.870Z,46.55
2018-01-08T01:43:00.392Z,46.55
2018-01-08T01:45:27.920Z,45.80
2018-01-08T01:47:55.444Z,43.10
2018-01-08T01:50:22.992Z,49.28
2018-01-08T01:52:51.292Z,57.67
2018-01-08T01:55:18.844Z,50.25
2018-01-08T01:57:46.368Z,53.40
2018-01-08T02:00:13.893Z,58.58
2018-01-08T02:02:41.419Z,47.10
2018-01-08T02:05:08.976Z,43.92
2018-01-08T02:07:37.268Z,56.60
2018-01-08T02:10:04.797Z,63.97
2018-01-08T02:12:33.122Z,50.65
2018-01-08T02:15:00.648Z,49.63
2018-01-08T02:17:28.192Z,54.00
2018-01-08T02:19:55.737Z,56.15
2018-01-08T02:22:23.279Z,53.55
2018-01-08T02:24:50.842Z,53.17
2018-01-08T02:27:18.378Z,56.17
2018-01-08T02:29:45.892Z,51.58
2018-01-08T02:32:14.197Z,50.45
2018-01-08T02:34:41.740Z,58.55
2018-01-08T02:37:09.281Z,51.00
2018-01-08T02:39:36.807Z,52.35
2018-01-08T02:42:04.348Z,50.10
2018-01-08T02:44:31.868Z,54.22
2018-01-08T02:46:59.404Z,55.50
2018-01-08T02:49:26.924Z,53.78
2018-01-08T02:51:54.471Z,58.00
2018-01-08T02:54:22.752Z,53.47
2018-01-08T02:56:51.048Z,51.83
2018-01-08T02:59:18.564Z,55.90
2018-01-08T03:01:46.104Z,54.55
2018-01-08T03:04:13.620Z,53.83
2018-01-08T03:06:41.189Z,49.10
2018-01-08T03:09:08.743Z,56.95
2018-01-08T03:11:39.251Z,50.65
2018-01-08T03:14:06.784Z,52.92
2018-01-08T03:16:34.324Z,52.95
2018-01-08T03:19:01.842Z,49.13
2018-01-08T03:21:29.377Z,48.55
2018-01-08T03:23:56.890Z,51.37
2018-01-08T03:26:24.437Z,48.13
2018-01-08T03:28:51.951Z,48.58
2018-01-08T03:31:19.488Z,50.60
2018-01-08T03:33:47.003Z,48.87
2018-01-08T03:36:14.541Z,50.22
2018-01-08T03:38:42.061Z,50.35
2018-01-08T03:41:09.590Z,56.13
2018-01-08T03:43:37.103Z,55.83
2018-01-08T03:46:04.643Z,55.12
2018-01-08T03:48:32.166Z,50.97
2018-01-08T03:50:59.712Z,47.10
2018-01-08T03:53:28.003Z,49.55
2018-01-08T03:55:55.540Z,47.90
2018-01-08T03:58:25.276Z,53.63
2018-01-08T04:00:52.807Z,50.88
2018-01-08T04:03:20.329Z,44.60
2018-01-08T04:05:47.900Z,51.30
2018-01-08T04:08:15.435Z,49.55
2018-01-08T04:10:42.946Z,48.75
2018-01-08T04:13:10.487Z,46.80
2018-01-08T04:15:38.020Z,46.78
2018-01-08T04:18:05.548Z,44.28
2018-01-08T04:20:33.827Z,50.95
2018-01-08T04:23:02.138Z,49.20
2018-01-08T04:25:30.423Z,44.30
2018-01-08T04:27:57.963Z,48.50
2018-01-08T04:30:25.519Z,42.20
2018-01-08T04:32:53.048Z,45.42
2018-01-08T04:35:21.334Z,44.38
2018-01-08T04:37:49.636Z,46.20
2018-01-08T04:40:17.147Z,42.25
2018-01-08T04:42:44.676Z,44.83
2018-01-08T04:45:12.192Z,45.25
2018-01-08T04:47:40.511Z,44.22
2018-01-08T04:50:08.040Z,47.28
2018-01-08T04:52:36.339Z,42.67
2018-01-08T04:55:03.864Z,39.40
2018-01-08T04:57:32.159Z,44.83
2018-01-08T05:00:00.444Z,44.03
2018-01-08T05:02:28.003Z,43.72
2018-01-08T05:04:56.283Z,52.03
2018-01-08T05:07:23.807Z,45.88
2018-01-08T05:09:51.325Z,42.42
2018-01-08T05:12:18.860Z,42.72
2018-01-08T05:14:46.383Z,47.30
2018-01-08T05:17:13.920Z,41.80
2018-01-08T05:19:41.453Z,40.65
2018-01-08T05:22:08.987Z,41.33
2018-01-08T05:24:37.292Z,44.38
2018-01-08T05:27:04.838Z,40.08
2018-01-08T05:29:32.365Z,45.42
2018-01-08T05:31:59.907Z,44.13
2018-01-08T05:34:27.429Z,41.55
2018-01-08T05:36:54.969Z,44.33
2018-01-08T05:39:23.252Z,41.58
2018-01-08T05:41:50.795Z,48.53
2018-01-08T05:44:19.094Z,47.80
2018-01-08T05:46:46.635Z,41.58
2018-01-08T05:49:14.920Z,47.20
2018-01-08T05:51:43.222Z,42.85
2018-01-08T05:54:11.275Z,42.15
2018-01-08T05:56:39.583Z,47.60
2018-01-08T05:59:07.091Z,40.83
2018-01-08T06:01:34.624Z,40.15
2018-01-08T06:04:02.170Z,44.58
2018-01-08T06:06:29.723Z,48.00
2018-01-08T06:08:58.006Z,38.22
2018-01-08T06:11:25.536Z,38.22
2018-01-08T06:13:53.072Z,44.05
2018-01-08T06:16:20.595Z,44.35
2018-01-08T06:18:48.138Z,37.15
2018-01-08T06:21:15.668Z,41.75
2018-01-08T06:23:43.977Z,35.78
2018-01-08T06:26:11.512Z,38.72
2018-01-08T06:28:39.810Z,37.08
2018-01-08T06:31:07.320Z,40.90
2018-01-08T06:33:34.867Z,34.60
2018-01-08T06:36:02.385Z,40.55
2018-01-08T06:38:29.944Z,40.25
2018-01-08T06:40:57.475Z,37.58
2018-01-08T06:43:25.775Z,35.45
2018-01-08T06:45:53.292Z,36.00
2018-01-08T06:48:20.814Z,35.20
2018-01-08T06:50:48.352Z,44.47
2018-01-08T06:53:15.916Z,35.75
2018-01-08T06:55:43.439Z,35.40
2018-01-08T06:58:10.972Z,32.45
2018-01-08T07:00:38.501Z,35.38
2018-01-08T07:03:06.045Z,37.55
2018-01-08T07:05:34.326Z,38.05
2018-01-08T07:08:02.624Z,37.33
2018-01-08T07:10:49.159Z,33.75
2018-01-08T07:13:16.695Z,37.33
2018-01-08T07:15:44.231Z,35.55
2018-01-08T07:18:12.531Z,41.28
2018-01-08T07:20:40.808Z,38.60
2018-01-08T07:23:08.395Z,38.42
2018-01-08T07:25:36.049Z,36.85
2018-01-08T07:28:03.588Z,36.35
2018-01-08T07:30:31.118Z,37.95
2018-01-08T07:32:59.424Z,40.80
2018-01-08T07:35:26.968Z,37.40
2018-01-08T07:37:54.525Z,36.75
2018-01-08T07:40:22.808Z,38.33
2018-01-08T07:42:50.356Z,38.45
2018-01-08T07:45:18.648Z,36.38
2018-01-08T07:47:46.951Z,35.95
2018-01-08T07:50:14.470Z,38.15
2018-01-08T07:52:42.763Z,39.25
2018-01-08T07:55:10.280Z,38.92
2018-01-08T07:57:37.819Z,38.60
2018-01-08T08:00:05.344Z,33.60
2018-01-08T08:02:32.881Z,33.42
2018-01-08T08:05:00.425Z,35.33
2018-01-08T08:07:27.987Z,43.35
2018-01-08T08:09:55.501Z,35.42
2018-01-08T08:12:23.038Z,37.30
2018-01-08T08:14:51.340Z,34.83
2018-01-08T08:17:18.854Z,40.12
2018-01-08T08:19:46.391Z,36.90
2018-01-08T08:22:13.908Z,31.95
2018-01-08T08:24:41.442Z,36.22
2018-01-08T08:27:08.964Z,30.42
2018-01-08T08:29:36.506Z,33.33
2018-01-08T08:32:04.019Z,35.47
2018-01-08T08:34:31.547Z,28.38
2018-01-08T08:36:59.076Z,29.83
2018-01-08T08:39:26.624Z,33.60
2018-01-08T08:41:54.148Z,31.25
2018-01-08T08:44:21.675Z,27.05
2018-01-08T08:46:49.184Z,33.33
2018-01-08T08:49:17.483Z,26.25
2018-01-08T08:51:45.012Z,29.63
2018-01-08T08:54:12.553Z,27.98
2018-01-08T08:56:40.088Z,30.55
2018-01-08T08:59:07.626Z,25.83
2018-01-08T09:01:35.148Z,27.05
2018-01-08T09:04:02.686Z,33.58
2018-01-08T09:06:30.205Z,45.65
2018-01-08T09:08:58.503Z,45.58
2018-01-08T09:11:26.012Z,32.42
2018-01-08T09:13:53.549Z,35.38
2018-01-08T09:16:21.076Z,32.30
2018-01-08T09:18:48.645Z,30.30
2018-01-08T09:21:16.180Z,30.65
2018-01-08T09:23:44.475Z,31.73
2018-01-08T09:26:12.000Z,32.75
2018-01-08T09:28:40.311Z,30.05
2018-01-08T09:31:07.820Z,26.70
2018-01-08T09:33:41.078Z,28.60
2018-01-08T09:36:08.592Z,26.05
2018-01-08T09:38:36.896Z,32.15
2018-01-08T09:41:04.425Z,28.83
2018-01-08T09:43:31.959Z,28.35
2018-01-08T09:45:59.491Z,26.85
2018-01-08T09:48:27.027Z,26.00
2018-01-08T09:50:55.333Z,26.25
2018-01-08T09:53:22.847Z,33.92
2018-01-08T09:55:50.381Z,26.58
2018-01-08T09:58:17.900Z,26.70
2018-01-08T10:00:45.437Z,23.23
2018-01-08T10:03:25.512Z,26.00
2018-01-08T10:06:04.826Z,27.00
2018-01-08T10:08:44.931Z,24.00
2018-01-08T10:11:24.171Z,29.85
2018-01-08T10:14:03.607Z,28.62
2018-01-08T10:16:42.799Z,23.27
2018-01-08T10:19:13.804Z,25.92
2018-01-08T10:21:44.482Z,30.70
2018-01-08T10:24:12.028Z,27.33
2018-01-08T10:26:40.311Z,25.08
2018-01-08T10:29:08.679Z,25.60
2018-01-08T10:31:36.276Z,30.67
2018-01-08T10:34:03.793Z,23.90
2018-01-08T10:36:31.340Z,27.87
2018-01-08T10:38:58.871Z,23.20
2018-01-08T10:41:32.126Z,25.92
2018-01-08T10:44:05.368Z,26.80
2018-01-08T10:46:38.661Z,26.30
2018-01-08T10:49:11.922Z,25.05
2018-01-08T10:51:40.780Z,22.75
2018-01-08T10:54:08.391Z,26.60
2018-01-08T10:56:35.915Z,24.67
2018-01-08T10:59:04.204Z,27.73
2018-01-08T11:01:37.364Z,23.30
2018-01-08T11:04:04.921Z,23.75
2018-01-08T11:06:33.265Z,21.55
2018-01-08T11:09:00.782Z,22.17
2018-01-08T11:11:29.087Z,21.65
2018-01-08T11:13:56.619Z,21.62
2018-01-08T11:16:24.942Z,23.60
2018-01-08T11:18:52.450Z,21.90
2018-01-08T11:21:20.014Z,20.02
2018-01-08T11:23:48.302Z,23.08
2018-01-08T11:26:16.595Z,21.33
2018-01-08T11:28:44.144Z,24.67
2018-01-08T11:31:12.442Z,20.52
2018-01-08T11:33:39.988Z,21.30
2018-01-08T11:36:07.528Z,22.27
2018-01-08T11:38:35.853Z,20.20
2018-01-08T11:41:03.408Z,22.00
2018-01-08T11:43:30.939Z,21.75
2018-01-08T11:45:59.219Z,24.50
2018-01-08T11:48:27.518Z,18.37
2018-01-08T11:50:55.678Z,19.52
2018-01-08T11:53:23.252Z,25.12
2018-01-08T11:55:50.777Z,22.17
2018-01-08T11:58:18.927Z,23.48
2018-01-08T12:00:46.471Z,24.55
2018-01-08T12:03:14.020Z,21.17
2018-01-08T12:05:41.563Z,18.75
2018-01-08T12:08:09.099Z,18.23
2018-01-08T12:10:37.390Z,22.45
2018-01-08T12:13:04.938Z,21.60
2018-01-08T12:15:32.488Z,17.58
2018-01-08T12:18:00.051Z,21.12
2018-01-08T12:20:28.357Z,18.90
2018-01-08T12:22:56.663Z,21.23
2018-01-08T12:25:24.235Z,20.75
2018-01-08T12:27:52.894Z,19.05
2018-01-08T12:30:21.173Z,21.67
2018-01-08T12:32:48.715Z,21.30
2018-01-08T12:35:16.276Z,19.55
2018-01-08T12:37:44.588Z,21.67
2018-01-08T12:40:12.111Z,18.08
2018-01-08T12:42:41.160Z,15.57
2018-01-08T12:45:08.687Z,19.52
2018-01-08T12:47:36.236Z,15.38
2018-01-08T12:50:03.754Z,18.65
2018-01-08T12:52:31.272Z,13.60
2018-01-08T12:54:58.813Z,18.45
2018-01-08T12:57:27.088Z,18.52
2018-01-08T12:59:55.387Z,25.02
2018-01-08T13:02:22.932Z,15.48
2018-01-08T13:04:50.492Z,18.33
2018-01-08T13:07:18.009Z,18.87
2018-01-08T13:09:45.542Z,16.67
2018-01-08T13:12:13.067Z,15.18
2018-01-08T13:14:41.380Z,16.00
2018-01-08T13:17:08.896Z,16.92
2018-01-08T13:19:37.207Z,15.52
2018-01-08T13:22:04.737Z,18.95
2018-01-08T13:24:32.287Z,14.30
2018-01-08T13:27:00.690Z,15.32
2018-01-08T13:29:28.231Z,19.40
2018-01-08T13:31:56.516Z,19.95
2018-01-08T13:34:24.067Z,14.90
2018-01-08T13:36:52.367Z,16.02
2018-01-08T13:39:19.903Z,15.38
2018-01-08T13:41:48.189Z,17.12
2018-01-08T13:44:15.744Z,15.65
2018-01-08T13:46:44.039Z,21.10
2018-01-08T13:49:17.574Z,18.20
2018-01-08T13:51:45.095Z,17.58
2018-01-08T13:54:12.644Z,16.92
2018-01-08T13:56:40.160Z,17.23
2018-01-08T13:59:07.695Z,14.70
2018-01-08T14:01:35.204Z,20.02
2018-01-08T14:04:02.776Z,13.75
2018-01-08T14:06:30.315Z,14.68
2018-01-08T14:08:57.879Z,15.60
2018-01-08T14:11:25.415Z,13.93
2018-01-08T14:13:52.936Z,14.68
2018-01-08T14:16:20.446Z,13.60
2018-01-08T14:18:48.726Z,15.15
2018-01-08T14:21:16.263Z,16.00
2018-01-08T14:23:43.803Z,16.40
2018-01-08T14:26:11.454Z,14.48
2018-01-08T14:28:39.078Z,13.98
2018-01-08T14:31:06.631Z,18.27
2018-01-08T14:33:34.910Z,19.23
2018-01-08T14:36:02.432Z,20.48
2018-01-08T14:38:29.965Z,18.35
2018-01-08T14:40:57.615Z,13.30
2018-01-08T14:43:25.123Z,16.45
2018-01-08T14:45:52.684Z,16.73
2018-01-08T14:48:20.179Z,14.45
2018-01-08T14:50:47.847Z,15.18
2018-01-08T14:53:15.350Z,15.45
2018-01-08T14:55:42.865Z,15.13
2018-01-08T14:58:10.362Z,12.80
2018-01-08T15:00:37.908Z,13.80
2018-01-08T15:03:05.465Z,12.32
2018-01-08T15:05:33.006Z,23.83
2018-01-08T15:08:00.526Z,17.87
2018-01-08T15:10:28.818Z,14.65
2018-01-08T15:12:57.081Z,13.80
2018-01-08T15:15:24.640Z,11.82
2018-01-08T15:17:52.918Z,16.35
2018-01-08T15:20:21.206Z,15.68
2018-01-08T15:22:50.092Z,16.05
2018-01-08T15:25:18.362Z,13.13
2018-01-08T15:27:46.643Z,14.40
2018-01-08T15:30:14.911Z,15.80
2018-01-08T15:32:42.422Z,11.15
2018-01-08T15:35:09.918Z,16.10
2018-01-08T15:37:37.437Z,14.38
2018-01-08T15:40:04.960Z,17.73
2018-01-08T15:42:33.237Z,16.02
2018-01-08T15:45:01.525Z,13.98
2018-01-08T15:47:29.958Z,14.77
2018-01-08T15:49:57.461Z,13.85
2018-01-08T15:52:25.742Z,12.23
2018-01-08T15:54:53.246Z,18.55
2018-01-08T15:57:20.782Z,12.95
2018-01-08T15:59:48.286Z,12.23
2018-01-08T16:02:15.805Z,15.73
2018-01-08T16:04:43.318Z,18.45
2018-01-08T16:07:11.612Z,15.38
2018-01-08T16:09:39.137Z,19.30
2018-01-08T16:12:06.695Z,15.15
2018-01-08T16:14:34.190Z,16.60
2018-01-08T16:17:01.714Z,18.60
2018-01-08T16:19:29.225Z,16.02
2018-01-08T16:21:56.798Z,14.40
2018-01-08T16:24:24.306Z,13.93
2018-01-08T16:26:52.581Z,14.27
2018-01-08T16:29:20.128Z,16.15
2018-01-08T16:31:47.642Z,15.63
2018-01-08T16:34:15.155Z,13.23
2018-01-08T16:36:43.455Z,15.27
2018-01-08T16:39:11.736Z,11.63
2018-01-08T16:41:39.256Z,12.52
2018-01-08T16:44:06.920Z,17.33
2018-01-08T16:46:34.493Z,15.55
2018-01-08T16:49:02.774Z,14.10
2018-01-08T16:51:30.301Z,15.13
2018-01-08T16:53:57.851Z,15.30
2018-01-08T16:56:25.434Z,12.98
2018-01-08T16:58:52.934Z,11.38
2018-01-08T17:01:20.450Z,14.35
2018-01-08T17:03:55.865Z,14.23
2018-01-08T17:06:23.387Z,14.85
2018-01-08T17:08:51.687Z,14.73
2018-01-08T17:11:19.235Z,12.32
2018-01-08T17:13:46.865Z,12.07
2018-01-08T17:16:14.432Z,13.88
2018-01-08T17:18:42.748Z,15.38
2018-01-08T17:21:10.292Z,13.70
2018-01-08T17:23:37.814Z,13.75
2018-01-08T17:26:05.322Z,13.73
2018-01-08T17:28:32.872Z,13.02
2018-01-08T17:31:00.398Z,15.95
2018-01-08T17:33:27.951Z,13.27
2018-01-08T17:35:55.450Z,13.30
2018-01-08T17:38:22.991Z,12.35
2018-01-08T17:40:51.254Z,13.00
2018-01-08T17:43:18.794Z,14.75
2018-01-08T17:45:46.292Z,14.40
2018-01-08T17:48:30.058Z,14.93
2018-01-08T17:50:57.583Z,12.07
2018-01-08T17:53:25.119Z,15.15
2018-01-08T17:55:52.632Z,14.13
2018-01-08T17:58:20.271Z,14.23
2018-01-08T18:00:48.621Z,13.68
2018-01-08T18:03:16.167Z,15.82
2018-01-08T18:05:43.693Z,12.88
2018-01-08T18:08:11.213Z,15.15
2018-01-08T18:10:38.752Z,12.82
2018-01-08T18:13:06.336Z,14.85
2018-01-08T18:15:34.640Z,13.70
2018-01-08T18:18:02.208Z,13.75
2018-01-08T18:20:29.776Z,14.87
2018-01-08T18:22:57.294Z,12.10
2018-01-08T18:25:25.633Z,14.07
2018-01-08T18:27:53.155Z,13.05
2018-01-08T18:30:20.701Z,13.80
2018-01-08T18:32:49.218Z,15.90
2018-01-08T18:35:16.773Z,15.60
2018-01-08T18:37:44.495Z,13.82
2018-01-08T18:40:12.085Z,14.63
2018-01-08T18:42:39.587Z,12.43
2018-01-08T18:45:07.102Z,11.35
2018-01-08T18:47:34.618Z,13.35
2018-01-08T18:50:02.241Z,19.52
2018-01-08T18:52:30.608Z,23.17
2018-01-08T18:54:58.946Z,14.75
2018-01-08T18:57:26.483Z,18.90
2018-01-08T18:59:54.150Z,21.20
2018-01-08T19:02:22.520Z,17.55
2018-01-08T19:04:50.050Z,17.33
2018-01-08T19:07:17.788Z,16.73
2018-01-08T19:09:45.337Z,14.00
2018-01-08T19:12:13.656Z,19.00
2018-01-08T19:14:41.259Z,15.95
2018-01-08T19:17:08.846Z,18.75
2018-01-08T19:19:37.178Z,15.00
2018-01-08T19:22:04.784Z,15.32
2018-01-08T19:24:32.363Z,17.75
2018-01-08T19:26:59.906Z,16.67
2018-01-08T19:29:27.497Z,15.63
2018-01-08T19:31:55.045Z,16.90
2018-01-08T19:34:22.629Z,18.67
2018-01-08T19:36:50.945Z,21.58
2018-01-08T19:39:18.521Z,22.35
2018-01-08T19:41:46.056Z,19.33
2018-01-08T19:44:14.382Z,22.55
2018-01-08T19:46:42.751Z,22.73
2018-01-08T19:49:10.256Z,17.92
2018-01-08T19:51:37.830Z,20.50
2018-01-08T19:54:05.385Z,17.48
2018-01-08T19:56:33.002Z,19.85
2018-01-08T19:59:00.649Z,20.73
2018-01-08T20:01:28.329Z,17.83
2018-01-08T20:03:55.894Z,18.85
2018-01-08T20:06:24.194Z,17.25
2018-01-08T20:08:51.810Z,24.12
2018-01-08T20:11:20.194Z,18.00
2018-01-08T20:13:47.753Z,19.05
2018-01-08T20:16:15.356Z,19.62
2018-01-08T20:18:43.630Z,17.73
2018-01-08T20:21:11.984Z,19.25
2018-01-08T20:23:39.544Z,19.87
2018-01-08T20:26:07.131Z,20.30
2018-01-08T20:28:34.707Z,18.27
2018-01-08T20:31:03.038Z,18.87
2018-01-08T20:33:30.617Z,20.23
2018-01-08T20:35:58.134Z,21.15
2018-01-08T20:38:26.487Z,21.08
2018-01-08T20:40:54.043Z,24.67
2018-01-08T20:43:22.411Z,18.85
2018-01-08T20:45:50.029Z,20.45
2018-01-08T20:48:17.689Z,21.25
2018-01-08T20:50:45.380Z,19.27
2018-01-08T20:53:13.005Z,22.02
2018-01-08T20:55:41.337Z,17.95
2018-01-08T20:58:08.914Z,19.65
2018-01-08T21:00:36.473Z,19.92
2018-01-08T21:03:04.046Z,18.12
2018-01-08T21:05:32.409Z,19.58
2018-01-08T21:08:00.004Z,19.27
2018-01-08T21:10:28.381Z,18.80
2018-01-08T21:12:56.744Z,22.40
2018-01-08T21:15:24.455Z,20.70
2018-01-08T21:17:52.829Z,21.20
2018-01-08T21:20:20.396Z,19.52
2018-01-08T21:22:47.960Z,20.67
2018-01-08T21:25:15.529Z,16.92
2018-01-08T21:27:43.121Z,17.60
2018-01-08T21:30:10.795Z,20.02
2018-01-08T21:32:38.381Z,19.65
2018-01-08T21:35:06.741Z,20.17
2018-01-08T21:37:34.305Z,19.67
2018-01-08T21:40:01.863Z,19.05
2018-01-08T21:42:29.626Z,18.67
2018-01-08T21:44:57.189Z,15.95
2018-01-08T21:47:25.729Z,16.77
2018-01-08T21:49:53.353Z,20.27
2018-01-08T21:52:21.669Z,20.27
2018-01-08T21:54:49.257Z,18.27
2018-01-08T21:57:16.761Z,19.17
2018-01-08T21:59:44.430Z,19.35
2018-01-08T22:02:12.532Z,18.02
2018-01-08T22:04:40.120Z,16.37
2018-01-08T22:07:07.684Z,17.00
2018-01-08T22:09:35.244Z,18.35
2018-01-08T22:12:02.796Z,16.90
2018-01-08T22:14:30.357Z,15.30
2018-01-08T22:16:57.929Z,16.20
2018-01-08T22:19:25.485Z,18.55
2018-01-08T22:21:53.790Z,14.63
2018-01-08T22:24:21.350Z,16.00
2018-01-08T22:26:49.728Z,16.33
2018-01-08T22:29:18.055Z,16.77
2018-01-08T22:31:45.603Z,13.20
2018-01-08T22:34:13.191Z,14.75
2018-01-08T22:36:40.762Z,15.65
2018-01-08T22:39:08.298Z,17.25
2018-01-08T22:41:35.869Z,16.08
2018-01-08T22:44:03.429Z,16.35
2018-01-08T22:46:30.988Z,15.38
2018-01-08T22:48:58.551Z,15.82
2018-01-08T22:51:26.109Z,15.25
2018-01-08T22:53:53.695Z,15.70
2018-01-08T22:56:21.309Z,15.48
2018-01-08T22:58:48.997Z,18.08
2018-01-08T23:01:16.549Z,17.30
2018-01-08T23:03:44.881Z,15.88
2018-01-08T23:06:12.425Z,15.88
2018-01-08T23:08:39.997Z,15.13
2018-01-08T23:11:07.540Z,14.05
2018-01-08T23:13:35.091Z,19.20
2018-01-08T23:16:02.694Z,15.35
2018-01-08T23:18:30.196Z,21.23
2018-01-08T23:20:57.798Z,16.95
2018-01-08T23:23:25.298Z,15.00
2018-01-08T23:25:52.866Z,21.33
2018-01-08T23:28:21.175Z,14.85
2018-01-08T23:30:49.484Z,18.50
2018-01-08T23:33:16.997Z,17.40
2018-01-08T23:35:44.552Z,16.35
2018-01-08T23:38:12.063Z,15.43
2018-01-08T23:40:40.398Z,15.88
2018-01-08T23:43:07.897Z,16.40
2018-01-08T23:45:36.182Z,16.40
2018-01-08T23:48:03.715Z,16.60
2018-01-08T23:50:31.233Z,20.23
2018-01-08T23:52:58.742Z,15.88
2018-01-08T23:55:26.254Z,20.23
2018-01-08T23:57:53.819Z,17.80
